Terminal Aerodrome Forecast
Issued by NWS Springfield, MO

Home | Current Version | Previous Version | Graphics & Text | Print | Product List | Glossary On
Versions: 1 2 3 4 5 6 7 8 9 10 11 12 13
000
FTUS43 KSGF 051100
TAFSGF
TAF
KSGF 051120Z 0512/0612 16006KT P6SM SCT070 BKN250
     FM051500 18013G20KT P6SM SCT050 BKN250
     FM052200 16012KT P6SM FEW050 SCT250
     FM060900 15013KT P6SM BKN100=

USA.gov is the U.S. government's official web portal to all federal, state and local government web resources and services.